createdAt,value
2022-12-22T00:01:55.914Z,87.38
2022-12-22T00:04:42.710Z,87.81
2022-12-22T00:07:28.530Z,86.84
2022-12-22T00:10:15.441Z,86.71
2022-12-22T00:13:00.774Z,86.97
2022-12-22T00:15:50.076Z,86.74
2022-12-22T00:18:36.133Z,86.62
2022-12-22T00:21:22.063Z,86.76
2022-12-22T00:24:07.713Z,86.70
2022-12-22T00:26:55.337Z,86.27
2022-12-22T00:29:41.009Z,85.83
2022-12-22T00:32:32.347Z,85.70
2022-12-22T00:35:18.965Z,85.72
2022-12-22T00:38:05.096Z,85.72
2022-12-22T00:40:50.408Z,85.71
2022-12-22T00:43:37.367Z,86.14
2022-12-22T00:46:23.386Z,85.90
2022-12-22T00:49:09.657Z,86.19
2022-12-22T00:51:55.654Z,86.50
2022-12-22T00:54:41.666Z,86.34
2022-12-22T00:57:34.061Z,86.16
2022-12-22T01:00:23.098Z,86.52
2022-12-22T01:03:09.059Z,85.92
2022-12-22T01:05:54.716Z,85.95
2022-12-22T01:08:40.263Z,86.42
2022-12-22T01:11:26.586Z,86.08
2022-12-22T01:14:11.914Z,87.80
2022-12-22T01:16:58.822Z,88.20
2022-12-22T01:19:44.208Z,87.22
2022-12-22T01:22:30.994Z,86.25
2022-12-22T01:25:16.869Z,86.72
2022-12-22T01:28:02.339Z,86.18
2022-12-22T01:30:47.763Z,86.71
2022-12-22T01:33:34.815Z,88.07
2022-12-22T01:36:19.975Z,88.05
2022-12-22T01:39:05.753Z,87.98
2022-12-22T01:41:51.855Z,87.16
2022-12-22T01:44:37.722Z,87.55
2022-12-22T01:48:00.103Z,87.68
2022-12-22T01:50:52.302Z,87.29
2022-12-22T01:53:41.999Z,87.93
2022-12-22T01:56:28.016Z,87.76
2022-12-22T01:59:17.383Z,86.60
2022-12-22T02:02:03.854Z,87.62
2022-12-22T02:04:53.089Z,87.18
2022-12-22T02:07:56.443Z,87.13
2022-12-22T02:10:58.576Z,86.95
2022-12-22T02:13:53.457Z,87.29
2022-12-22T02:16:46.322Z,86.38
2022-12-22T02:19:43.792Z,86.01
2022-12-22T02:22:40.262Z,85.96
2022-12-22T02:25:35.006Z,86.00
2022-12-22T02:28:24.405Z,87.10
2022-12-22T02:31:11.118Z,89.23
2022-12-22T02:33:57.184Z,89.07
2022-12-22T02:36:56.720Z,89.01
2022-12-22T02:39:54.562Z,87.85
2022-12-22T02:42:51.272Z,89.55
2022-12-22T02:45:46.893Z,91.42
2022-12-22T02:48:39.499Z,92.83
2022-12-22T02:51:30.165Z,93.26
2022-12-22T02:54:16.571Z,92.17
2022-12-22T02:57:02.742Z,91.72
2022-12-22T02:59:48.147Z,91.42
2022-12-22T03:02:35.154Z,91.02
2022-12-22T03:05:21.228Z,90.14
2022-12-22T03:08:08.734Z,88.71
2022-12-22T03:10:55.091Z,87.68
2022-12-22T03:13:40.964Z,88.40
2022-12-22T03:16:26.410Z,87.16
2022-12-22T03:19:13.324Z,86.36
2022-12-22T03:21:59.678Z,85.79
2022-12-22T03:24:45.033Z,86.18
2022-12-22T03:27:13.217Z,85.90
2022-12-22T03:29:41.276Z,85.75
2022-12-22T03:32:09.327Z,85.53
2022-12-22T03:34:38.769Z,86.27
2022-12-22T03:37:06.842Z,86.07
2022-12-22T03:39:34.895Z,85.35
2022-12-22T03:42:20.509Z,85.56
2022-12-22T03:45:06.318Z,85.54
2022-12-22T03:47:34.501Z,86.48
2022-12-22T03:50:04.006Z,85.86
2022-12-22T03:52:32.053Z,86.65
2022-12-22T03:55:00.173Z,86.27
2022-12-22T03:57:28.197Z,86.85
2022-12-22T03:59:56.323Z,86.30
2022-12-22T04:02:24.529Z,86.35
2022-12-22T04:04:52.646Z,86.73
2022-12-22T04:07:22.093Z,88.07
2022-12-22T04:10:04.053Z,89.09
2022-12-22T04:12:49.646Z,88.76
2022-12-22T04:15:18.021Z,87.88
2022-12-22T04:17:46.071Z,87.08
2022-12-22T04:20:14.294Z,87.31
2022-12-22T04:22:43.891Z,86.67
2022-12-22T04:25:12.478Z,86.49
2022-12-22T04:27:40.662Z,86.88
2022-12-22T04:30:10.163Z,87.13
2022-12-22T04:32:38.298Z,87.41
2022-12-22T04:35:08.323Z,87.26
2022-12-22T04:37:36.444Z,86.47
2022-12-22T04:40:07.109Z,86.59
2022-12-22T04:42:35.338Z,86.96
2022-12-22T04:45:03.424Z,87.20
2022-12-22T04:47:31.532Z,87.03
2022-12-22T04:50:00.190Z,88.33
2022-12-22T04:52:28.300Z,88.89
2022-12-22T04:54:56.413Z,89.29
2022-12-22T04:57:26.052Z,88.89
2022-12-22T04:59:55.348Z,88.66
2022-12-22T05:02:23.697Z,89.94
2022-12-22T05:04:51.800Z,88.77
2022-12-22T05:07:20.831Z,88.22
2022-12-22T05:09:48.959Z,89.32
2022-12-22T05:12:34.609Z,89.23
2022-12-22T05:15:04.492Z,88.37
2022-12-22T05:17:32.685Z,88.39
2022-12-22T05:20:00.700Z,89.45
2022-12-22T05:22:28.789Z,89.63
2022-12-22T05:24:57.318Z,89.69
2022-12-22T05:27:25.430Z,88.66
2022-12-22T05:29:53.505Z,88.24
2022-12-22T05:32:23.045Z,89.27
2022-12-22T05:34:51.131Z,90.18
2022-12-22T05:37:19.326Z,91.78
2022-12-22T05:39:47.363Z,91.40
2022-12-22T05:42:35.437Z,90.39
2022-12-22T05:45:05.597Z,89.46
2022-12-22T05:47:35.168Z,89.28
2022-12-22T05:50:03.608Z,88.04
2022-12-22T05:52:31.661Z,87.33
2022-12-22T05:54:59.753Z,87.62
2022-12-22T05:57:27.948Z,87.41
2022-12-22T05:59:56.004Z,87.51
2022-12-22T06:02:24.466Z,88.16
2022-12-22T06:04:54.336Z,88.17
2022-12-22T06:07:30.384Z,89.19
2022-12-22T06:09:58.520Z,88.82
2022-12-22T06:12:26.673Z,88.97
2022-12-22T06:14:54.705Z,89.81
2022-12-22T06:17:22.810Z,89.95
2022-12-22T06:19:50.928Z,91.44
2022-12-22T06:22:20.408Z,92.42
2022-12-22T06:24:48.450Z,94.71
2022-12-22T06:27:16.622Z,93.17
2022-12-22T06:29:44.687Z,93.77
2022-12-22T06:32:12.767Z,93.54
2022-12-22T06:34:40.883Z,95.27
2022-12-22T06:37:08.963Z,95.01
2022-12-22T06:39:38.483Z,95.39
2022-12-22T06:42:23.775Z,95.32
2022-12-22T06:44:54.954Z,95.94
2022-12-22T06:47:23.444Z,96.93
2022-12-22T06:49:52.334Z,95.90
2022-12-22T06:52:20.547Z,94.13
2022-12-22T06:54:50.158Z,92.79
2022-12-22T06:57:18.232Z,91.06
2022-12-22T06:59:46.939Z,89.44
2022-12-22T07:02:17.087Z,88.81
2022-12-22T07:04:45.480Z,88.06
2022-12-22T07:07:13.539Z,88.63
2022-12-22T07:09:41.691Z,88.20
2022-12-22T07:12:11.151Z,87.39
2022-12-22T07:14:39.222Z,86.91
2022-12-22T07:17:07.307Z,86.26
2022-12-22T07:19:35.385Z,87.37
2022-12-22T07:22:03.560Z,87.74
2022-12-22T07:24:31.622Z,88.48
2022-12-22T07:27:00.214Z,87.87
2022-12-22T07:29:29.664Z,86.60
2022-12-22T07:31:57.856Z,86.72
2022-12-22T07:34:25.938Z,86.85
2022-12-22T07:36:54.010Z,86.31
2022-12-22T07:39:22.085Z,86.10
2022-12-22T07:42:07.605Z,85.71
2022-12-22T07:44:37.111Z,85.46
2022-12-22T07:47:05.398Z,84.94
2022-12-22T07:49:50.742Z,85.56
2022-12-22T07:52:18.850Z,85.43
2022-12-22T07:54:46.902Z,85.07
2022-12-22T07:57:14.953Z,85.41
2022-12-22T07:59:44.507Z,84.84
2022-12-22T08:02:13.123Z,84.78
2022-12-22T08:04:41.403Z,85.11
2022-12-22T08:07:09.484Z,84.61
2022-12-22T08:09:37.540Z,84.82
2022-12-22T08:12:06.123Z,84.74
2022-12-22T08:14:34.210Z,84.75
2022-12-22T08:17:03.792Z,84.52
2022-12-22T08:19:32.917Z,84.93
2022-12-22T08:22:01.376Z,84.85
2022-12-22T08:24:29.993Z,84.39
2022-12-22T08:27:01.429Z,84.54
2022-12-22T08:29:34.399Z,84.43
2022-12-22T08:32:04.180Z,84.37
2022-12-22T08:34:32.544Z,84.48
2022-12-22T08:37:04.041Z,85.27
2022-12-22T08:39:35.423Z,84.43
2022-12-22T08:42:06.760Z,85.46
2022-12-22T08:44:34.890Z,84.69
2022-12-22T08:47:04.454Z,84.39
2022-12-22T08:49:32.946Z,83.24
2022-12-22T08:52:01.262Z,84.53
2022-12-22T08:54:29.720Z,83.49
2022-12-22T08:56:58.739Z,84.72
2022-12-22T08:59:26.832Z,82.35
2022-12-22T09:01:54.965Z,85.05
2022-12-22T09:04:25.540Z,85.24
2022-12-22T09:06:54.411Z,85.03
2022-12-22T09:09:22.584Z,84.38
2022-12-22T09:11:50.823Z,83.68
2022-12-22T09:14:19.272Z,82.08
2022-12-22T09:16:47.337Z,84.17
2022-12-22T09:19:15.613Z,83.62
2022-12-22T09:21:45.127Z,86.23
2022-12-22T09:24:14.656Z,86.88
2022-12-22T09:26:43.070Z,82.50
2022-12-22T09:29:11.132Z,85.79
2022-12-22T09:31:41.705Z,86.00
2022-12-22T09:34:16.866Z,79.61
2022-12-22T09:36:48.097Z,83.40
2022-12-22T09:39:17.240Z,84.81
2022-12-22T09:41:48.438Z,84.37
2022-12-22T09:44:26.407Z,83.54
2022-12-22T09:46:56.968Z,82.10
2022-12-22T09:49:25.835Z,78.55
2022-12-22T09:51:58.476Z,81.37
2022-12-22T09:54:27.433Z,82.11
2022-12-22T09:56:55.493Z,79.51
2022-12-22T09:59:27.095Z,80.57
2022-12-22T10:02:04.178Z,80.91
2022-12-22T10:04:50.480Z,80.60
2022-12-22T10:07:27.628Z,81.19
2022-12-22T10:09:56.196Z,83.70
2022-12-22T10:12:26.840Z,83.38
2022-12-22T10:14:55.606Z,82.34
2022-12-22T10:17:28.194Z,84.52
2022-12-22T10:20:10.771Z,83.78
2022-12-22T10:22:49.029Z,83.96
2022-12-22T10:26:00.051Z,78.92
2022-12-22T10:28:25.479Z,75.91
2022-12-22T10:31:12.876Z,78.32
2022-12-22T10:33:46.840Z,77.74
2022-12-22T10:36:17.556Z,82.74
2022-12-22T10:38:58.498Z,83.13
2022-12-22T10:41:29.198Z,83.49
2022-12-22T10:44:00.183Z,79.95
2022-12-22T10:46:36.015Z,83.25
2022-12-22T10:49:18.188Z,82.98
2022-12-22T10:51:49.697Z,83.76
2022-12-22T10:54:31.457Z,79.76
2022-12-22T10:57:30.416Z,79.49
2022-12-22T11:00:00.347Z,78.77
2022-12-22T11:02:34.176Z,82.69
2022-12-22T11:05:06.136Z,83.93
2022-12-22T11:07:36.297Z,80.67
2022-12-22T11:10:17.803Z,84.22
2022-12-22T11:13:12.111Z,82.84
2022-12-22T11:15:49.715Z,81.89
2022-12-22T11:18:37.037Z,80.56
2022-12-22T11:21:16.180Z,82.58
2022-12-22T11:23:55.640Z,82.08
2022-12-22T11:26:36.926Z,81.38
2022-12-22T11:29:30.937Z,83.62
2022-12-22T11:32:13.597Z,83.16
2022-12-22T11:34:56.139Z,83.07
2022-12-22T11:37:35.430Z,79.57
2022-12-22T11:40:13.072Z,81.09
2022-12-22T11:42:56.638Z,80.08
2022-12-22T11:45:43.307Z,81.65
2022-12-22T11:48:30.644Z,78.44
2022-12-22T11:51:10.506Z,80.51
2022-12-22T11:54:27.777Z,80.58
2022-12-22T11:57:05.007Z,82.54
2022-12-22T11:59:47.808Z,82.22
2022-12-22T12:02:49.753Z,75.84
2022-12-22T12:05:37.973Z,81.71
2022-12-22T12:08:16.341Z,79.25
2022-12-22T12:10:48.922Z,77.55
2022-12-22T12:13:33.162Z,73.34
2022-12-22T12:16:18.415Z,75.24
2022-12-22T12:19:13.147Z,77.71
2022-12-22T12:21:48.355Z,77.65
2022-12-22T12:24:40.625Z,78.19
2022-12-22T12:27:22.297Z,71.44
2022-12-22T12:30:28.594Z,73.88
2022-12-22T12:32:54.084Z,76.86
2022-12-22T12:35:59.649Z,73.72
2022-12-22T12:39:07.010Z,74.17
2022-12-22T12:41:32.670Z,74.49
2022-12-22T12:44:02.372Z,73.19
2022-12-22T12:47:01.725Z,79.34
2022-12-22T12:49:59.646Z,75.07
2022-12-22T12:53:15.770Z,76.26
2022-12-22T12:56:04.902Z,79.74
2022-12-22T12:58:53.836Z,76.46
2022-12-22T13:01:58.616Z,75.48
2022-12-22T13:05:09.436Z,77.92
2022-12-22T13:08:19.409Z,76.18
2022-12-22T13:10:50.447Z,76.32
2022-12-22T13:13:52.274Z,75.94
2022-12-22T13:16:39.834Z,81.16
2022-12-22T13:19:21.292Z,78.92
2022-12-22T13:21:53.478Z,79.67
2022-12-22T13:24:29.136Z,77.77
2022-12-22T13:27:03.318Z,72.32
2022-12-22T13:29:42.024Z,71.72
2022-12-22T13:32:23.078Z,75.58
2022-12-22T13:35:29.572Z,72.49
2022-12-22T13:37:48.878Z,74.39
2022-12-22T13:40:22.430Z,75.70
2022-12-22T13:42:53.199Z,70.68
2022-12-22T13:45:37.256Z,74.62
2022-12-22T13:48:10.758Z,72.24
2022-12-22T13:50:40.695Z,75.36
2022-12-22T13:53:22.904Z,74.20
2022-12-22T13:56:01.586Z,72.39
2022-12-22T13:58:32.265Z,73.95
2022-12-22T14:01:14.468Z,74.36
2022-12-22T14:04:04.373Z,75.00
2022-12-22T14:06:36.090Z,73.50
2022-12-22T14:09:18.667Z,76.31
2022-12-22T14:11:53.056Z,75.23
2022-12-22T14:14:25.983Z,78.34
2022-12-22T14:16:56.309Z,79.03
2022-12-22T14:19:26.150Z,75.59
2022-12-22T14:22:05.826Z,79.38
2022-12-22T14:24:39.084Z,80.36
2022-12-22T14:27:19.822Z,77.61
2022-12-22T14:29:48.092Z,79.09
2022-12-22T14:32:38.364Z,80.51
2022-12-22T14:35:17.683Z,78.56
2022-12-22T14:37:45.794Z,79.49
2022-12-22T14:40:29.012Z,77.06
2022-12-22T14:43:00.159Z,76.41
2022-12-22T14:45:28.561Z,77.25
2022-12-22T14:47:57.573Z,80.03
2022-12-22T14:50:28.229Z,78.63
2022-12-22T14:52:58.523Z,77.92
2022-12-22T14:55:30.023Z,80.37
2022-12-22T14:58:03.960Z,76.92
2022-12-22T15:00:35.687Z,76.22
2022-12-22T15:03:06.979Z,78.20
2022-12-22T15:05:37.470Z,77.23
2022-12-22T15:08:09.327Z,77.56
2022-12-22T15:10:43.813Z,80.43
2022-12-22T15:13:25.181Z,78.44
2022-12-22T15:15:53.775Z,79.59
2022-12-22T15:18:25.831Z,76.34
2022-12-22T15:20:54.148Z,76.09
2022-12-22T15:23:22.249Z,74.50
2022-12-22T15:25:50.371Z,76.03
2022-12-22T15:28:19.817Z,74.79
2022-12-22T15:30:49.281Z,75.69
2022-12-22T15:33:19.922Z,74.49
2022-12-22T15:35:48.314Z,77.17
2022-12-22T15:38:19.076Z,78.53
2022-12-22T15:40:47.210Z,76.32
2022-12-22T15:43:56.020Z,77.88
2022-12-22T15:46:07.652Z,76.04
2022-12-22T15:48:37.626Z,76.60
2022-12-22T15:51:07.812Z,73.47
2022-12-22T15:53:38.039Z,77.68
2022-12-22T15:56:10.151Z,76.67
2022-12-22T15:58:40.741Z,75.39
2022-12-22T16:01:11.872Z,76.88
2022-12-22T16:03:40.379Z,77.82
2022-12-22T16:06:14.922Z,76.83
2022-12-22T16:08:47.200Z,75.72
2022-12-22T16:11:15.410Z,76.87
2022-12-22T16:13:43.613Z,76.28
2022-12-22T16:16:13.498Z,73.86
2022-12-22T16:18:41.592Z,74.93
2022-12-22T16:21:15.788Z,73.40
2022-12-22T16:23:45.977Z,74.48
2022-12-22T16:26:18.081Z,78.01
2022-12-22T16:28:46.776Z,77.03
2022-12-22T16:31:21.281Z,77.25
2022-12-22T16:33:50.143Z,76.26
2022-12-22T16:36:18.399Z,76.54
2022-12-22T16:38:47.678Z,77.52
2022-12-22T16:41:21.802Z,77.24
2022-12-22T16:43:51.020Z,76.96
2022-12-22T16:46:22.968Z,74.94
2022-12-22T16:48:53.187Z,73.99
2022-12-22T16:51:25.031Z,76.15
2022-12-22T16:53:53.792Z,76.05
2022-12-22T16:56:26.908Z,75.21
2022-12-22T16:58:55.090Z,76.02
2022-12-22T17:01:32.999Z,76.56
2022-12-22T17:04:05.605Z,76.64
2022-12-22T17:06:34.163Z,76.46
2022-12-22T17:09:04.180Z,77.34
2022-12-22T17:11:34.534Z,76.76
2022-12-22T17:14:07.024Z,77.97
2022-12-22T17:16:36.676Z,77.35
2022-12-22T17:19:04.856Z,77.59
2022-12-22T17:21:33.747Z,78.64
2022-12-22T17:24:04.918Z,80.08
2022-12-22T17:26:34.697Z,79.38
2022-12-22T17:29:03.074Z,80.23
2022-12-22T17:31:31.365Z,80.98
2022-12-22T17:34:00.880Z,80.39
2022-12-22T17:36:33.988Z,79.86
2022-12-22T17:39:03.235Z,79.79
2022-12-22T17:41:31.554Z,79.31
2022-12-22T17:43:59.744Z,79.29
2022-12-22T17:46:28.637Z,79.73
2022-12-22T17:48:56.744Z,78.70
2022-12-22T17:51:28.800Z,78.62
2022-12-22T17:53:58.853Z,78.23
2022-12-22T17:56:28.851Z,79.49
2022-12-22T17:58:57.019Z,79.54
2022-12-22T18:01:27.938Z,79.73
2022-12-22T18:03:57.123Z,79.70
2022-12-22T18:06:28.934Z,79.74
2022-12-22T18:08:58.312Z,79.39
2022-12-22T18:11:27.212Z,79.22
2022-12-22T18:13:57.423Z,79.30
2022-12-22T18:16:25.768Z,79.46
2022-12-22T18:18:53.883Z,80.13
2022-12-22T18:21:24.199Z,79.24
2022-12-22T18:23:53.817Z,78.91
2022-12-22T18:26:24.543Z,78.65
2022-12-22T18:28:53.583Z,78.47
2022-12-22T18:31:23.072Z,78.14
2022-12-22T18:33:51.523Z,78.82
2022-12-22T18:36:24.994Z,78.60
2022-12-22T18:38:54.997Z,77.57
2022-12-22T18:41:25.385Z,77.96
2022-12-22T18:43:53.992Z,76.96
2022-12-22T18:46:22.514Z,76.96
2022-12-22T18:48:50.773Z,77.62
2022-12-22T18:51:21.824Z,77.03
2022-12-22T18:53:51.119Z,76.26
2022-12-22T18:56:21.139Z,76.81
2022-12-22T18:58:49.484Z,75.53
2022-12-22T19:01:21.042Z,76.95
2022-12-22T19:03:49.662Z,76.84
2022-12-22T19:06:20.773Z,77.17
2022-12-22T19:08:49.600Z,77.02
2022-12-22T19:11:23.008Z,76.46
2022-12-22T19:13:52.604Z,77.95
2022-12-22T19:16:24.417Z,77.84
2022-12-22T19:18:52.555Z,77.56
2022-12-22T19:21:20.921Z,76.13
2022-12-22T19:23:49.604Z,76.35
2022-12-22T19:26:23.038Z,75.85
2022-12-22T19:28:53.921Z,75.29
2022-12-22T19:31:25.739Z,73.97
2022-12-22T19:33:54.509Z,73.00
2022-12-22T19:36:26.594Z,72.70
2022-12-22T19:39:02.801Z,72.93
2022-12-22T19:41:39.895Z,73.21
2022-12-22T19:44:18.085Z,71.86
2022-12-22T19:46:46.706Z,72.58
2022-12-22T19:49:17.700Z,72.40
2022-12-22T19:51:45.912Z,71.96
2022-12-22T19:54:14.334Z,72.48
2022-12-22T19:56:47.501Z,71.66
2022-12-22T19:59:27.334Z,71.73
2022-12-22T20:01:58.535Z,71.79
2022-12-22T20:04:26.949Z,71.11
2022-12-22T20:06:55.181Z,71.45
2022-12-22T20:09:23.260Z,71.06
2022-12-22T20:11:52.789Z,71.53
2022-12-22T20:14:21.086Z,71.17
2022-12-22T20:16:49.306Z,71.40
2022-12-22T20:19:17.579Z,71.14
2022-12-22T20:21:45.932Z,71.72
2022-12-22T20:24:22.205Z,71.01
2022-12-22T20:26:54.885Z,71.93
2022-12-22T20:29:25.185Z,73.52
2022-12-22T20:31:53.514Z,74.66
2022-12-22T20:34:21.594Z,73.50
2022-12-22T20:36:50.016Z,73.90
2022-12-22T20:39:20.585Z,73.18
2022-12-22T20:41:53.412Z,72.86
2022-12-22T20:44:24.121Z,72.24
2022-12-22T20:46:52.414Z,72.39
2022-12-22T20:49:20.476Z,72.79
2022-12-22T20:51:48.920Z,72.92
2022-12-22T20:54:17.181Z,73.10
2022-12-22T20:56:46.155Z,73.28
2022-12-22T20:59:18.003Z,74.06
2022-12-22T21:01:48.906Z,73.34
2022-12-22T21:04:18.293Z,73.71
2022-12-22T21:06:49.845Z,73.67
2022-12-22T21:09:18.547Z,73.06
2022-12-22T21:11:46.725Z,73.65
2022-12-22T21:14:16.860Z,73.24
2022-12-22T21:16:45.066Z,72.79
2022-12-22T21:19:18.887Z,72.80
2022-12-22T21:21:47.305Z,72.97
2022-12-22T21:24:15.482Z,72.80
2022-12-22T21:26:46.871Z,72.72
2022-12-22T21:29:19.206Z,72.33
2022-12-22T21:31:47.521Z,74.14
2022-12-22T21:34:17.508Z,74.80
2022-12-22T21:36:49.922Z,74.13
2022-12-22T21:39:29.747Z,74.70
2022-12-22T21:42:01.095Z,75.12
2022-12-22T21:44:29.650Z,74.52
2022-12-22T21:46:58.293Z,74.49
2022-12-22T21:49:30.570Z,74.75
2022-12-22T21:51:58.898Z,75.45
2022-12-22T21:54:27.975Z,74.17
2022-12-22T21:56:56.486Z,74.73
2022-12-22T21:59:24.600Z,74.71
2022-12-22T22:01:53.567Z,74.94
2022-12-22T22:04:22.318Z,73.82
2022-12-22T22:06:51.940Z,74.03
2022-12-22T22:09:20.047Z,73.44
2022-12-22T22:12:05.322Z,74.93
2022-12-22T22:14:33.424Z,75.65
2022-12-22T22:17:01.551Z,74.98
2022-12-22T22:19:29.662Z,75.05
2022-12-22T22:21:59.139Z,75.00
2022-12-22T22:24:27.234Z,76.45
2022-12-22T22:26:56.583Z,75.54
2022-12-22T22:29:24.635Z,76.14
2022-12-22T22:31:52.789Z,76.90
2022-12-22T22:34:20.943Z,76.22
2022-12-22T22:36:49.045Z,76.38
2022-12-22T22:39:18.490Z,76.25
2022-12-22T22:41:46.573Z,75.57
2022-12-22T22:44:14.721Z,76.21
2022-12-22T22:46:42.918Z,76.84
2022-12-22T22:49:11.259Z,77.31
2022-12-22T22:51:39.332Z,76.45
2022-12-22T22:54:07.436Z,76.04
2022-12-22T22:56:38.870Z,77.59
2022-12-22T22:59:07.064Z,76.96
2022-12-22T23:01:35.306Z,75.77
2022-12-22T23:04:03.450Z,76.72
2022-12-22T23:06:31.739Z,75.73
2022-12-22T23:09:00.732Z,75.45
2022-12-22T23:11:28.850Z,74.49
2022-12-22T23:13:58.321Z,74.44
2022-12-22T23:16:29.560Z,73.74
2022-12-22T23:19:01.919Z,74.67
2022-12-22T23:21:30.056Z,75.11
2022-12-22T23:23:59.176Z,76.10
2022-12-22T23:26:27.616Z,78.33
2022-12-22T23:29:02.663Z,80.51
2022-12-22T23:31:33.617Z,80.64
2022-12-22T23:34:02.047Z,81.44
2022-12-22T23:36:30.248Z,82.27
2022-12-22T23:38:58.916Z,82.45
2022-12-22T23:41:27.024Z,82.49
2022-12-22T23:43:55.490Z,82.80
2022-12-22T23:46:24.005Z,81.98
2022-12-22T23:48:55.677Z,82.23
2022-12-22T23:51:26.726Z,81.77
2022-12-22T23:53:54.942Z,81.41
2022-12-22T23:56:23.321Z,81.60
2022-12-22T23:58:54.856Z,81.66
